Time;durP1;ratioP1;P1;durP2;ratioP2;P2;SDS_P1;SDS_P2;PMS_P1;PMS_P2;Temp;Humidity;BMP_temperature;BMP_pressure;BME280_temperature;BME280_humidity;BME280_pressure;Samples;Min_cycle;Max_cycle;Signal;HPM_P1;HPM_P2
2023/09/28 00:00:49;;;;;;;0.00;0.00;;;19.20;86.70;;;;;;5021009;28;20030;-81
2023/09/28 00:03:15;;;;;;;0.00;0.00;;;19.20;88.10;;;;;;5023769;28;20037;-81
2023/09/28 00:05:41;;;;;;;0.00;0.00;;;19.20;89.50;;;;;;5018878;28;20598;-82
2023/09/28 00:08:07;;;;;;;0.00;0.00;;;19.20;90.10;;;;;;5023186;28;20029;-81
2023/09/28 00:10:33;;;;;;;0.00;0.00;;;19.30;90.00;;;;;;5021817;28;20983;-80
2023/09/28 00:12:59;;;;;;;0.00;0.00;;;19.20;90.40;;;;;;5024316;28;20137;-80
2023/09/28 00:15:25;;;;;;;0.00;0.00;;;19.10;91.00;;;;;;5018816;28;20052;-80
2023/09/28 00:17:51;;;;;;;0.10;0.10;;;19.00;91.50;;;;;;5023833;28;20040;-80
2023/09/28 00:20:18;;;;;;;0.00;0.00;;;19.10;91.60;;;;;;5024720;28;20029;-80
2023/09/28 00:22:44;;;;;;;0.00;0.00;;;19.00;91.90;;;;;;5023965;28;20064;-82
2023/09/28 00:25:11;;;;;;;0.00;0.00;;;19.00;91.50;;;;;;5021447;28;20050;-81
2023/09/28 00:27:37;;;;;;;;;;;19.10;91.20;;;;;;5024889;28;20099;-81
2023/09/28 00:30:12;;;;;;;0.20;0.20;;;19.10;91.00;;;;;;5023962;28;19909;-81
2023/09/28 00:32:38;;;;;;;0.00;0.00;;;19.10;90.90;;;;;;5023066;28;20060;-80
2023/09/28 00:35:05;;;;;;;0.00;0.00;;;19.10;90.90;;;;;;5019506;28;20038;-80
2023/09/28 00:37:32;;;;;;;0.00;0.00;;;19.10;90.80;;;;;;5022192;28;20030;-81
2023/09/28 00:39:58;;;;;;;0.00;0.00;;;19.10;90.70;;;;;;5023435;28;20033;-80
2023/09/28 00:42:24;;;;;;;;;;;19.10;90.20;;;;;;5024018;28;20026;-80
2023/09/28 00:44:51;;;;;;;0.00;0.00;;;19.20;86.90;;;;;;5026872;28;19912;-80
2023/09/28 00:47:18;;;;;;;1.13;1.13;;;19.20;84.60;;;;;;5022053;28;20065;-82
2023/09/28 00:49:44;;;;;;;;;;;19.30;81.60;;;;;;5018187;28;20030;-83
2023/09/28 00:52:12;;;;;;;0.00;0.00;;;19.40;80.20;;;;;;5024672;28;19909;-82
2023/09/28 00:54:38;;;;;;;0.00;0.00;;;19.40;79.60;;;;;;5024803;28;20033;-81
2023/09/28 00:57:06;;;;;;;0.47;0.47;;;19.30;79.90;;;;;;5021431;28;20025;-83
2023/09/28 00:59:32;;;;;;;0.00;0.00;;;19.30;80.50;;;;;;5015884;28;20037;-82
2023/09/28 01:01:58;;;;;;;0.00;0.00;;;19.00;82.40;;;;;;5022081;28;20503;-81
2023/09/28 01:04:23;;;;;;;0.00;0.00;;;18.90;82.90;;;;;;5023802;28;20037;-84
2023/09/28 01:06:49;;;;;;;0.00;0.00;;;18.90;84.80;;;;;;5022128;28;20042;-83
2023/09/28 01:09:15;;;;;;;0.00;0.00;;;19.00;85.50;;;;;;5024003;28;20370;-81
2023/09/28 01:11:42;;;;;;;0.00;0.00;;;18.90;85.40;;;;;;5022846;28;20463;-83
2023/09/28 01:14:07;;;;;;;0.00;0.00;;;18.90;84.90;;;;;;5019831;28;20116;-81
2023/09/28 01:16:33;;;;;;;0.00;0.00;;;18.80;84.20;;;;;;5022791;28;20183;-84
2023/09/28 01:18:59;;;;;;;0.00;0.00;;;18.80;84.30;;;;;;5028409;28;20092;-83
2023/09/28 01:21:25;;;;;;;0.00;0.00;;;18.80;84.20;;;;;;5025654;28;20111;-81
2023/09/28 01:23:51;;;;;;;0.00;0.00;;;18.70;84.10;;;;;;5017996;28;20033;-83
2023/09/28 01:26:17;;;;;;;0.00;0.00;;;18.70;84.40;;;;;;5023338;28;20037;-81
2023/09/28 01:28:43;;;;;;;0.00;0.00;;;18.60;84.30;;;;;;5015949;28;20112;-84
2023/09/28 01:31:08;;;;;;;0.00;0.00;;;18.60;84.70;;;;;;5024378;28;20112;-81
2023/09/28 01:33:34;;;;;;;0.00;0.00;;;18.60;85.40;;;;;;5015928;28;20030;-81
2023/09/28 01:36:00;;;;;;;0.00;0.00;;;18.60;85.10;;;;;;5016563;28;20053;-82
2023/09/28 01:38:48;;;;;;;0.00;0.00;;;18.50;86.30;;;;;;5023030;28;20091;-80
2023/09/28 01:41:14;;;;;;;0.00;0.00;;;18.40;86.90;;;;;;5023657;28;20032;-81
2023/09/28 01:43:40;;;;;;;0.00;0.00;;;18.40;87.90;;;;;;5025929;28;20052;-82
2023/09/28 01:46:16;;;;;;;0.00;0.00;;;18.40;89.00;;;;;;5023288;28;20502;-82
2023/09/28 01:48:47;;;;;;;0.15;0.15;;;18.40;89.70;;;;;;5023946;28;20033;-86
2023/09/28 01:51:16;;;;;;;0.10;0.10;;;18.40;89.40;;;;;;5020646;28;20487;-81
2023/09/28 01:53:41;;;;;;;0.00;0.00;;;18.30;89.60;;;;;;5023129;28;20488;-81
2023/09/28 01:56:07;;;;;;;0.00;0.00;;;18.20;89.30;;;;;;5020092;28;20038;-81
2023/09/28 01:58:33;;;;;;;0.00;0.00;;;18.30;89.70;;;;;;5021419;28;20766;-82
2023/09/28 02:00:58;;;;;;;0.10;0.10;;;18.10;91.20;;;;;;5021037;28;20676;-84
2023/09/28 02:03:25;;;;;;;0.00;0.00;;;18.00;92.30;;;;;;5039526;28;20512;-81
2023/09/28 02:05:52;;;;;;;0.00;0.00;;;18.00;92.70;;;;;;5020780;28;20036;-81
2023/09/28 02:08:18;;;;;;;0.00;0.00;;;17.90;92.80;;;;;;5019510;28;20025;-80
2023/09/28 02:10:44;;;;;;;0.00;0.00;;;17.80;93.50;;;;;;5018377;28;20026;-81
2023/09/28 02:13:10;;;;;;;0.00;0.00;;;17.80;93.90;;;;;;5024311;28;21188;-80
2023/09/28 02:15:35;;;;;;;0.00;0.00;;;17.90;94.10;;;;;;5020429;28;20041;-80
2023/09/28 02:18:01;;;;;;;0.00;0.00;;;17.80;94.60;;;;;;5021518;28;20031;-84
2023/09/28 02:20:30;;;;;;;0.00;0.00;;;17.90;94.50;;;;;;5016325;28;20029;-80
2023/09/28 02:22:55;;;;;;;0.00;0.00;;;17.80;94.60;;;;;;5023696;28;20543;-80
2023/09/28 02:25:23;;;;;;;0.10;0.10;;;17.80;94.90;;;;;;5024224;28;20183;-82
2023/09/28 02:27:50;;;;;;;0.00;0.00;;;17.70;94.60;;;;;;5015463;28;20041;-82
2023/09/28 02:30:19;;;;;;;;;;;17.90;94.30;;;;;;5017599;28;20026;-81
2023/09/28 02:32:45;;;;;;;0.47;0.47;;;17.80;95.10;;;;;;5008931;28;19917;-82
2023/09/28 02:35:14;;;;;;;;;;;17.80;95.30;;;;;;5021000;28;20097;-82
2023/09/28 02:37:41;;;;;;;0.00;0.00;;;17.60;95.70;;;;;;5021232;28;20356;-81
2023/09/28 02:40:08;;;;;;;0.00;0.00;;;17.70;96.00;;;;;;5023826;28;20505;-81
2023/09/28 02:42:34;;;;;;;;;;;17.70;96.20;;;;;;5027546;28;20030;-80
2023/09/28 02:45:00;;;;;;;0.00;0.00;;;17.60;96.40;;;;;;5024352;28;19920;-81
2023/09/28 02:47:26;;;;;;;0.00;0.00;;;17.60;96.60;;;;;;5024999;28;20041;-83
2023/09/28 02:49:52;;;;;;;0.00;0.00;;;17.60;96.90;;;;;;5026881;28;20041;-83
2023/09/28 02:52:18;;;;;;;0.00;0.00;;;17.60;97.00;;;;;;5027419;28;20033;-78
2023/09/28 02:54:44;;;;;;;0.00;0.00;;;17.60;97.20;;;;;;5029922;28;20021;-82
2023/09/28 02:57:10;;;;;;;0.00;0.00;;;17.60;97.30;;;;;;5025669;28;20272;-81
2023/09/28 02:59:36;;;;;;;0.00;0.00;;;17.60;97.40;;;;;;5031561;28;20075;-79
2023/09/28 03:02:03;;;;;;;0.00;0.00;;;17.50;97.50;;;;;;5032786;28;20023;-83
2023/09/28 03:04:31;;;;;;;0.00;0.00;;;17.70;97.10;;;;;;5029250;28;20136;-81
2023/09/28 03:06:57;;;;;;;1.08;0.47;;;17.70;96.70;;;;;;5016556;28;20030;-81
2023/09/28 03:09:24;;;;;;;0.00;0.00;;;17.80;96.30;;;;;;5020319;28;20112;-84
2023/09/28 03:11:50;;;;;;;0.00;0.00;;;17.50;96.40;;;;;;5017790;28;20040;-81
2023/09/28 03:14:15;;;;;;;0.00;0.00;;;17.50;96.80;;;;;;5025291;28;20034;-82
2023/09/28 03:16:42;;;;;;;0.00;0.00;;;17.50;97.30;;;;;;5015481;28;20342;-81
2023/09/28 03:19:08;;;;;;;0.00;0.00;;;17.50;97.40;;;;;;5014463;28;20022;-80
2023/09/28 03:21:35;;;;;;;0.00;0.00;;;17.40;97.60;;;;;;5018174;28;20018;-81
2023/09/28 03:24:01;;;;;;;;;;;17.50;97.60;;;;;;5027636;28;20124;-82
2023/09/28 03:26:30;;;;;;;0.00;0.00;;;17.40;97.60;;;;;;5029482;28;20028;-81
2023/09/28 03:28:56;;;;;;;0.00;0.00;;;17.40;97.80;;;;;;5031388;28;20128;-81
2023/09/28 03:31:27;;;;;;;0.00;0.00;;;17.30;98.20;;;;;;5031612;28;20029;-81
2023/09/28 03:33:55;;;;;;;0.00;0.00;;;17.40;98.20;;;;;;5025285;28;20037;-85
2023/09/28 03:36:24;;;;;;;0.00;0.00;;;17.50;97.90;;;;;;5019703;28;20033;-82
2023/09/28 03:38:50;;;;;;;0.00;0.00;;;17.40;98.10;;;;;;5029012;28;20033;-81
2023/09/28 03:41:17;;;;;;;0.00;0.00;;;17.50;98.00;;;;;;5030044;28;20028;-81
2023/09/28 03:43:48;;;;;;;0.00;0.00;;;17.40;98.10;;;;;;5029373;28;20021;-81
2023/09/28 03:46:18;;;;;;;0.00;0.00;;;17.30;98.20;;;;;;5029757;28;20041;-85
2023/09/28 03:48:45;;;;;;;0.00;0.00;;;17.20;98.90;;;;;;5026848;28;20103;-83
2023/09/28 03:51:11;;;;;;;0.00;0.00;;;17.10;99.30;;;;;;5025760;28;20029;-84
2023/09/28 03:53:40;;;;;;;0.00;0.00;;;17.10;99.90;;;;;;5025666;28;20032;-82
2023/09/28 03:56:06;;;;;;;0.08;0.08;;;17.00;99.90;;;;;;5019730;28;20028;-82
2023/09/28 03:58:32;;;;;;;0.00;0.00;;;16.90;99.90;;;;;;5017647;28;20033;-84
2023/09/28 04:00:58;;;;;;;0.10;0.10;;;17.10;99.90;;;;;;5021234;28;20040;-80
2023/09/28 04:03:24;;;;;;;0.13;0.13;;;17.00;99.90;;;;;;5014811;28;20494;-82
2023/09/28 04:05:50;;;;;;;0.00;0.00;;;17.00;99.90;;;;;;5018039;28;20029;-81
2023/09/28 04:08:15;;;;;;;0.07;0.07;;;16.80;99.90;;;;;;5022557;28;20486;-82
2023/09/28 04:10:42;;;;;;;0.00;0.00;;;16.90;99.90;;;;;;5015996;28;20025;-83
2023/09/28 04:13:08;;;;;;;0.00;0.00;;;16.90;99.90;;;;;;5027591;28;20454;-81
2023/09/28 04:15:33;;;;;;;0.00;0.00;;;16.80;99.90;;;;;;5028797;28;20112;-82
2023/09/28 04:18:00;;;;;;;0.10;0.10;;;16.70;99.90;;;;;;5026739;28;20111;-81
2023/09/28 04:20:26;;;;;;;0.00;0.00;;;16.80;99.90;;;;;;5031992;28;20030;-82
2023/09/28 04:22:52;;;;;;;0.00;0.00;;;16.80;99.90;;;;;;5030347;28;20025;-83
2023/09/28 04:25:20;;;;;;;0.00;0.00;;;17.00;99.90;;;;;;5029640;28;20052;-81
2023/09/28 04:27:46;;;;;;;0.00;0.00;;;17.00;99.90;;;;;;5032231;28;20029;-81
2023/09/28 04:30:12;;;;;;;;;;;17.00;99.90;;;;;;5018654;28;20025;-86
2023/09/28 04:32:38;;;;;;;0.00;0.00;;;16.90;99.90;;;;;;5026023;28;19919;-82
2023/09/28 04:35:10;;;;;;;0.00;0.00;;;17.00;99.90;;;;;;5021121;28;20534;-86
2023/09/28 04:37:38;;;;;;;0.00;0.00;;;17.00;99.90;;;;;;5028376;28;20424;-81
2023/09/28 04:40:05;;;;;;;0.00;0.00;;;17.00;99.90;;;;;;5016035;28;20092;-80
2023/09/28 04:42:31;;;;;;;0.00;0.00;;;16.90;99.90;;;;;;5027867;28;20539;-82
2023/09/28 04:44:57;;;;;;;1.30;1.23;;;16.90;99.90;;;;;;5025900;28;20037;-80
2023/09/28 04:47:22;;;;;;;0.00;0.00;;;16.90;99.90;;;;;;5022187;28;20045;-82
2023/09/28 04:49:48;;;;;;;0.00;0.00;;;16.90;99.90;;;;;;5026049;28;20087;-79
2023/09/28 04:52:14;;;;;;;0.00;0.00;;;16.90;99.90;;;;;;5023828;28;20320;-78
2023/09/28 04:54:40;;;;;;;0.00;0.00;;;16.90;99.90;;;;;;5023827;28;20522;-78
2023/09/28 04:57:06;;;;;;;0.00;0.00;;;16.80;99.90;;;;;;5020526;28;20087;-80
2023/09/28 04:59:38;;;;;;;0.03;0.03;;;16.70;99.90;;;;;;5023732;28;20402;-82
2023/09/28 05:02:04;;;;;;;0.00;0.00;;;16.60;99.90;;;;;;5024419;28;20021;-82
2023/09/28 05:04:30;;;;;;;0.00;0.00;;;16.50;99.90;;;;;;5025102;28;20025;-78
2023/09/28 05:06:59;;;;;;;0.07;0.07;;;16.40;99.90;;;;;;5024442;28;20037;-80
2023/09/28 05:09:26;;;;;;;0.30;0.30;;;16.30;99.90;;;;;;5017394;28;20029;-82
2023/09/28 05:11:53;;;;;;;0.00;0.00;;;16.30;99.90;;;;;;5024535;28;20405;-84
2023/09/28 05:14:23;;;;;;;0.00;0.00;;;16.30;99.90;;;;;;5025148;28;20044;-83
2023/09/28 05:16:50;;;;;;;0.05;0.05;;;16.30;99.90;;;;;;5024618;28;20033;-85
2023/09/28 05:19:15;;;;;;;0.00;0.00;;;16.40;99.90;;;;;;5028232;28;20040;-83
2023/09/28 05:21:41;;;;;;;0.00;0.00;;;16.40;99.90;;;;;;5033037;28;20715;-85
2023/09/28 05:24:07;;;;;;;0.00;0.00;;;16.40;99.90;;;;;;5022484;28;20058;-85
2023/09/28 05:26:33;;;;;;;0.00;0.00;;;16.40;99.90;;;;;;5020684;28;20041;-83
2023/09/28 05:28:59;;;;;;;0.00;0.00;;;16.40;99.90;;;;;;5022979;28;20041;-87
2023/09/28 05:31:25;;;;;;;0.00;0.00;;;16.40;99.90;;;;;;5025285;28;20500;-83
2023/09/28 05:33:51;;;;;;;0.00;0.00;;;16.40;99.90;;;;;;5024137;28;20072;-89
2023/09/28 05:36:17;;;;;;;0.00;0.00;;;16.40;99.90;;;;;;5027033;28;20057;-87
2023/09/28 05:38:43;;;;;;;0.00;0.00;;;16.50;99.90;;;;;;5026957;28;20032;-85
2023/09/28 05:41:08;;;;;;;0.00;0.00;;;16.50;99.90;;;;;;5029282;28;20104;-86
2023/09/28 05:43:34;;;;;;;0.00;0.00;;;16.50;99.90;;;;;;5026054;28;20033;-86
2023/09/28 05:46:00;;;;;;;0.00;0.00;;;16.40;99.90;;;;;;5023134;28;20053;-87
2023/09/28 05:48:25;;;;;;;0.00;0.00;;;16.40;99.90;;;;;;5026950;28;20030;-85
2023/09/28 05:50:53;;;;;;;0.00;0.00;;;16.40;99.90;;;;;;5023268;28;20033;-78
2023/09/28 05:53:19;;;;;;;0.00;0.00;;;16.30;99.90;;;;;;5023039;28;20021;-77
2023/09/28 05:55:45;;;;;;;0.00;0.00;;;16.30;99.90;;;;;;5021429;28;20103;-77
2023/09/28 05:58:10;;;;;;;0.00;0.00;;;16.30;99.90;;;;;;5023762;28;20033;-86
2023/09/28 06:00:37;;;;;;;0.00;0.00;;;16.30;99.90;;;;;;5019293;28;20026;-85
2023/09/28 06:03:04;;;;;;;0.00;0.00;;;16.30;99.90;;;;;;5022770;28;20029;-84
2023/09/28 06:05:29;;;;;;;0.00;0.00;;;16.30;99.90;;;;;;5022713;28;20033;-83
2023/09/28 06:07:55;;;;;;;0.00;0.00;;;16.30;99.90;;;;;;5022957;28;20034;-84
2023/09/28 06:10:21;;;;;;;0.00;0.00;;;16.40;99.90;;;;;;5023206;28;20029;-83
2023/09/28 06:12:47;;;;;;;0.00;0.00;;;16.50;99.90;;;;;;5017001;28;20412;-85
2023/09/28 06:15:12;;;;;;;0.00;0.00;;;16.50;99.90;;;;;;5024768;28;20032;-84
2023/09/28 06:17:38;;;;;;;0.00;0.00;;;16.50;99.90;;;;;;5026996;28;20068;-84
2023/09/28 06:20:05;;;;;;;0.00;0.00;;;16.60;99.90;;;;;;5025818;28;20061;-85
2023/09/28 06:22:30;;;;;;;;;;;16.70;99.90;;;;;;5026158;28;20033;-84
2023/09/28 06:24:56;;;;;;;0.00;0.00;;;16.70;99.90;;;;;;5026174;28;19920;-84
2023/09/28 06:27:25;;;;;;;0.00;0.00;;;16.70;99.90;;;;;;5025886;28;20048;-84
2023/09/28 06:29:52;;;;;;;0.00;0.00;;;16.80;99.90;;;;;;5024457;28;20698;-84
2023/09/28 06:32:21;;;;;;;0.00;0.00;;;16.90;99.90;;;;;;5027097;28;20018;-84
2023/09/28 06:34:46;;;;;;;0.00;0.00;;;16.80;99.90;;;;;;5025905;28;20836;-84
2023/09/28 06:37:12;;;;;;;0.00;0.00;;;17.00;99.90;;;;;;5026149;28;20029;-86
2023/09/28 06:39:38;;;;;;;0.00;0.00;;;17.30;99.90;;;;;;5026356;28;20029;-84
2023/09/28 06:42:04;;;;;;;0.00;0.00;;;18.10;99.90;;;;;;5026313;28;20029;-85
2023/09/28 06:44:30;;;;;;;0.00;0.00;;;18.40;98.10;;;;;;5024607;28;20026;-84
2023/09/28 06:46:57;;;;;;;0.00;0.00;;;18.10;98.20;;;;;;5026507;28;20045;-84
2023/09/28 06:49:23;;;;;;;0.00;0.00;;;18.20;98.60;;;;;;5025714;28;20056;-84
2023/09/28 06:51:49;;;;;;;0.00;0.00;;;19.50;96.40;;;;;;5026050;28;20404;-84
2023/09/28 06:54:16;;;;;;;0.00;0.00;;;20.10;94.50;;;;;;5025948;28;20269;-85
2023/09/28 06:56:42;;;;;;;0.00;0.00;;;21.20;92.50;;;;;;5026348;28;20042;-84
2023/09/28 06:59:07;;;;;;;0.00;0.00;;;20.80;92.80;;;;;;5020192;28;20374;-85
2023/09/28 07:01:35;;;;;;;0.00;0.00;;;21.40;91.80;;;;;;5024315;28;20052;-84
2023/09/28 07:04:00;;;;;;;0.00;0.00;;;21.00;92.10;;;;;;5014263;28;20026;-84
2023/09/28 07:06:26;;;;;;;0.00;0.00;;;22.00;90.80;;;;;;5024364;28;20473;-84
2023/09/28 07:08:55;;;;;;;0.00;0.00;;;22.60;89.40;;;;;;5025871;28;20564;-84
2023/09/28 07:11:20;;;;;;;0.00;0.00;;;22.90;88.20;;;;;;5026259;28;20355;-85
2023/09/28 07:13:46;;;;;;;0.00;0.00;;;22.50;87.80;;;;;;5021070;28;20029;-84
2023/09/28 07:16:12;;;;;;;0.00;0.00;;;23.00;87.00;;;;;;5016685;28;20029;-85
2023/09/28 07:18:37;;;;;;;0.00;0.00;;;22.40;87.20;;;;;;5019352;28;20554;-84
2023/09/28 07:21:03;;;;;;;0.00;0.00;;;22.60;86.90;;;;;;5018471;28;20097;-85
2023/09/28 07:23:29;;;;;;;0.00;0.00;;;23.10;86.10;;;;;;5025063;28;20029;-85
2023/09/28 07:25:55;;;;;;;0.00;0.00;;;24.00;84.20;;;;;;5018236;28;20180;-84
2023/09/28 07:28:21;;;;;;;0.00;0.00;;;23.60;82.80;;;;;;5023375;28;20041;-84
2023/09/28 07:30:47;;;;;;;0.00;0.00;;;23.40;81.40;;;;;;5023856;28;20519;-84
2023/09/28 07:33:15;;;;;;;0.00;0.00;;;23.50;80.70;;;;;;5023935;28;20085;-85
2023/09/28 07:35:45;;;;;;;0.00;0.00;;;23.80;77.20;;;;;;5021224;28;20032;-85
2023/09/28 07:38:11;;;;;;;0.00;0.00;;;24.40;75.70;;;;;;5023088;28;20033;-84
2023/09/28 07:40:37;;;;;;;0.00;0.00;;;24.80;74.40;;;;;;5015633;28;20048;-85
2023/09/28 07:43:03;;;;;;;0.00;0.00;;;24.80;74.80;;;;;;5023056;28;20713;-84
2023/09/28 07:45:30;;;;;;;0.00;0.00;;;24.90;74.40;;;;;;5015922;28;20260;-85
2023/09/28 07:47:56;;;;;;;0.00;0.00;;;25.50;72.80;;;;;;5019027;28;20088;-84
2023/09/28 07:50:21;;;;;;;0.00;0.00;;;26.00;72.70;;;;;;5017235;28;20036;-85
2023/09/28 07:52:47;;;;;;;0.00;0.00;;;26.10;70.00;;;;;;5024916;28;20282;-84
2023/09/28 07:55:14;;;;;;;0.00;0.00;;;25.90;68.90;;;;;;5020690;28;20284;-85
2023/09/28 07:57:41;;;;;;;0.28;0.28;;;26.30;68.80;;;;;;5024905;28;20519;-84
2023/09/28 08:00:07;;;;;;;0.00;0.00;;;26.20;69.90;;;;;;5023704;28;20108;-84
2023/09/28 08:02:32;;;;;;;;;;;26.50;68.20;;;;;;5018264;28;20029;-84
2023/09/28 08:04:59;;;;;;;0.00;0.00;;;26.60;67.60;;;;;;5016878;28;19916;-85
2023/09/28 08:07:24;;;;;;;0.00;0.00;;;26.60;69.70;;;;;;5016083;28;20046;-84
2023/09/28 08:09:51;;;;;;;0.00;0.00;;;27.10;67.50;;;;;;5021125;28;20025;-84
2023/09/28 08:12:17;;;;;;;0.00;0.00;;;26.90;66.00;;;;;;5024282;28;20025;-85
2023/09/28 08:14:43;;;;;;;0.00;0.00;;;27.70;66.70;;;;;;5017391;28;20045;-85
2023/09/28 08:17:09;;;;;;;0.00;0.00;;;27.20;63.00;;;;;;5023419;28;20037;-86
2023/09/28 08:19:36;;;;;;;0.00;0.00;;;27.10;61.90;;;;;;5017745;28;20072;-84
2023/09/28 08:22:03;;;;;;;0.00;0.00;;;27.30;64.60;;;;;;5024293;28;20021;-85
2023/09/28 08:24:29;;;;;;;0.00;0.00;;;27.70;63.80;;;;;;5017446;28;20810;-85
2023/09/28 08:26:55;;;;;;;0.00;0.00;;;27.70;63.00;;;;;;5012613;28;20033;-85
2023/09/28 08:29:21;;;;;;;0.00;0.00;;;28.00;63.20;;;;;;5017208;28;20053;-84
2023/09/28 08:31:46;;;;;;;0.00;0.00;;;28.10;62.20;;;;;;5005248;28;20523;-85
2023/09/28 08:34:13;;;;;;;0.00;0.00;;;28.50;61.50;;;;;;5014473;28;20029;-85
2023/09/28 08:36:38;;;;;;;0.00;0.00;;;28.20;62.00;;;;;;5016577;28;20067;-84
2023/09/28 08:39:06;;;;;;;0.00;0.00;;;28.10;62.20;;;;;;5017570;28;20465;-85
2023/09/28 08:41:34;;;;;;;0.00;0.00;;;28.40;62.70;;;;;;5017946;28;20832;-84
2023/09/28 08:44:05;;;;;;;0.00;0.00;;;28.40;62.10;;;;;;5018628;28;20037;-85
2023/09/28 08:46:38;;;;;;;0.00;0.00;;;28.60;61.90;;;;;;5024090;28;20045;-84
2023/09/28 08:49:05;;;;;;;0.00;0.00;;;28.60;61.60;;;;;;5019010;28;20033;-84
2023/09/28 08:51:36;;;;;;;1.55;1.08;;;28.70;59.70;;;;;;5018655;28;20041;-84
2023/09/28 08:54:04;;;;;;;0.47;0.47;;;28.40;58.00;;;;;;5026353;28;20146;-85
2023/09/28 08:56:36;;;;;;;0.00;0.00;;;28.70;60.10;;;;;;5020644;28;20156;-84
2023/09/28 08:59:05;;;;;;;0.00;0.00;;;28.90;57.00;;;;;;5016232;28;20032;-84
2023/09/28 09:01:32;;;;;;;0.00;0.00;;;28.30;59.70;;;;;;5016435;28;20029;-84
2023/09/28 09:03:59;;;;;;;0.00;0.00;;;28.30;56.70;;;;;;5018638;28;20025;-85
2023/09/28 09:06:28;;;;;;;0.00;0.00;;;28.80;58.00;;;;;;5021163;28;20034;-84
2023/09/28 09:09:00;;;;;;;0.00;0.00;;;29.50;57.80;;;;;;5020555;28;20436;-85
2023/09/28 09:11:28;;;;;;;0.00;0.00;;;29.10;55.70;;;;;;5016318;28;20041;-85
2023/09/28 09:13:56;;;;;;;0.00;0.00;;;29.70;56.80;;;;;;5017984;28;20026;-85
2023/09/28 09:16:23;;;;;;;0.00;0.00;;;30.10;56.00;;;;;;5020588;28;20035;-85
2023/09/28 09:18:50;;;;;;;0.00;0.00;;;30.50;55.70;;;;;;5013317;28;20021;-84
2023/09/28 09:21:16;;;;;;;0.00;0.00;;;30.30;55.10;;;;;;5016618;28;20029;-83
2023/09/28 09:23:42;;;;;;;0.00;0.00;;;30.40;54.10;;;;;;5016511;28;20917;-85
2023/09/28 09:26:19;;;;;;;0.00;0.00;;;30.30;53.20;;;;;;5023354;28;20021;-85
2023/09/28 09:28:48;;;;;;;0.00;0.00;;;30.00;53.10;;;;;;5018384;28;20528;-85
2023/09/28 09:31:14;;;;;;;0.00;0.00;;;30.70;55.40;;;;;;5014213;28;20476;-86
2023/09/28 09:33:43;;;;;;;0.00;0.00;;;30.10;52.20;;;;;;5005500;28;20033;-85
2023/09/28 09:36:08;;;;;;;0.00;0.00;;;29.70;52.00;;;;;;5015755;28;20028;-85
2023/09/28 09:38:34;;;;;;;0.00;0.00;;;30.50;54.90;;;;;;5019440;28;20022;-85
2023/09/28 09:41:02;;;;;;;0.00;0.00;;;30.90;52.70;;;;;;5016977;28;20886;-84
2023/09/28 09:43:32;;;;;;;1.08;1.08;;;31.30;53.30;;;;;;5017135;28;20699;-85
2023/09/28 09:45:57;;;;;;;0.10;0.10;;;30.40;54.00;;;;;;5021287;28;20443;-85
2023/09/28 09:48:24;;;;;;;0.00;0.00;;;29.80;54.30;;;;;;5007454;28;20046;-85
2023/09/28 09:50:50;;;;;;;0.00;0.00;;;29.20;53.40;;;;;;5020260;28;20037;-84
2023/09/28 09:53:17;;;;;;;0.00;0.00;;;28.00;54.70;;;;;;5025610;28;20020;-85
2023/09/28 09:55:44;;;;;;;0.00;0.00;;;28.40;53.30;;;;;;5023163;28;20029;-85
2023/09/28 09:58:15;;;;;;;0.00;0.00;;;28.30;55.60;;;;;;5015334;28;20021;-84
2023/09/28 10:00:42;;;;;;;0.00;0.00;;;28.20;54.80;;;;;;5022538;28;20029;-85
2023/09/28 10:03:09;;;;;;;0.00;0.00;;;28.30;54.60;;;;;;5023272;28;20057;-84
2023/09/28 10:05:36;;;;;;;0.00;0.00;;;28.10;55.40;;;;;;5017723;28;20093;-84
2023/09/28 10:08:05;;;;;;;0.00;0.00;;;28.10;55.60;;;;;;5012764;28;20117;-85
2023/09/28 10:10:32;;;;;;;0.00;0.00;;;27.60;55.70;;;;;;5017498;28;20133;-85
2023/09/28 10:12:58;;;;;;;0.00;0.00;;;27.20;56.10;;;;;;5013045;28;20029;-84
2023/09/28 10:15:26;;;;;;;0.10;0.10;;;26.50;57.90;;;;;;5010499;28;20428;-85
2023/09/28 10:17:53;;;;;;;0.00;0.00;;;26.60;59.10;;;;;;5012934;28;20033;-85
2023/09/28 10:20:20;;;;;;;0.00;0.00;;;27.10;58.30;;;;;;5014851;28;20495;-85
2023/09/28 10:22:47;;;;;;;0.00;0.00;;;26.90;59.00;;;;;;5022639;28;20029;-84
2023/09/28 10:25:15;;;;;;;0.00;0.00;;;27.20;57.70;;;;;;5011072;28;20117;-85
2023/09/28 10:27:45;;;;;;;0.00;0.00;;;27.10;58.60;;;;;;5020076;28;20029;-85
2023/09/28 10:30:21;;;;;;;0.35;0.22;;;27.30;59.20;;;;;;5017897;28;20084;-85
2023/09/28 10:32:50;;;;;;;0.00;0.00;;;27.40;61.60;;;;;;5021051;28;20052;-85
2023/09/28 10:35:30;;;;;;;0.00;0.00;;;27.50;58.40;;;;;;5017220;28;20063;-85
2023/09/28 10:38:18;;;;;;;0.13;0.13;;;27.50;60.80;;;;;;5022228;28;20030;-85
2023/09/28 10:40:48;;;;;;;0.03;0.03;;;27.30;59.60;;;;;;5003842;28;20025;-86
2023/09/28 10:43:37;;;;;;;0.00;0.00;;;27.10;60.90;;;;;;5013119;28;20776;-85
2023/09/28 10:46:05;;;;;;;0.00;0.00;;;27.30;60.50;;;;;;5016118;28;20029;-85
2023/09/28 10:48:44;;;;;;;0.00;0.00;;;27.00;60.30;;;;;;5015817;28;20041;-84
2023/09/28 10:51:11;;;;;;;0.00;0.00;;;26.90;60.00;;;;;;5021910;28;20096;-85
2023/09/28 10:53:37;;;;;;;0.00;0.00;;;27.10;59.30;;;;;;5022083;28;20555;-85
2023/09/28 10:56:06;;;;;;;0.00;0.00;;;27.10;60.60;;;;;;5014597;28;20034;-85
2023/09/28 10:58:36;;;;;;;0.00;0.00;;;27.00;62.50;;;;;;5020774;28;20033;-85
2023/09/28 11:01:04;;;;;;;0.00;0.00;;;26.80;60.70;;;;;;5011030;28;20195;-84
2023/09/28 11:03:31;;;;;;;0.00;0.00;;;26.90;64.20;;;;;;5021465;28;20021;-84
2023/09/28 11:05:58;;;;;;;0.00;0.00;;;27.10;65.00;;;;;;5014697;28;20029;-85
2023/09/28 11:08:25;;;;;;;0.00;0.00;;;27.20;61.80;;;;;;5020197;28;20036;-85
2023/09/28 11:10:55;;;;;;;0.00;0.00;;;27.00;64.80;;;;;;5014413;28;20053;-85
2023/09/28 11:13:24;;;;;;;0.20;0.20;;;27.00;62.00;;;;;;5025948;28;20102;-84
2023/09/28 11:15:49;;;;;;;0.00;0.00;;;27.00;62.40;;;;;;5020609;28;20075;-86
2023/09/28 11:18:18;;;;;;;0.00;0.00;;;26.90;62.60;;;;;;5025511;28;20037;-84
2023/09/28 11:20:44;;;;;;;0.00;0.00;;;26.90;64.20;;;;;;5014930;28;20394;-85
2023/09/28 11:23:13;;;;;;;0.00;0.00;;;27.10;66.40;;;;;;5014114;28;20072;-86
2023/09/28 11:25:39;;;;;;;0.00;0.00;;;26.80;63.70;;;;;;5024907;28;20053;-84
2023/09/28 11:28:07;;;;;;;0.00;0.00;;;26.50;61.40;;;;;;5013681;28;20037;-84
2023/09/28 11:30:32;;;;;;;0.00;0.00;;;26.40;62.70;;;;;;5022021;28;20022;-84
2023/09/28 11:33:02;;;;;;;0.00;0.00;;;26.20;63.00;;;;;;5020564;28;20079;-84
2023/09/28 11:35:34;;;;;;;0.00;0.00;;;26.30;62.30;;;;;;5023317;28;20041;-84
2023/09/28 11:38:00;;;;;;;0.00;0.00;;;26.30;62.00;;;;;;5021818;28;20043;-84
2023/09/28 11:40:28;;;;;;;0.00;0.00;;;26.20;63.20;;;;;;5020198;28;20412;-85
2023/09/28 11:42:56;;;;;;;0.80;0.80;;;26.30;65.20;;;;;;5019481;28;20021;-85
2023/09/28 11:45:27;;;;;;;0.00;0.00;;;26.20;66.00;;;;;;5017218;28;20056;-85
2023/09/28 11:47:53;;;;;;;0.00;0.00;;;26.30;66.70;;;;;;5024920;28;20049;-85
2023/09/28 11:50:18;;;;;;;0.00;0.00;;;26.10;63.70;;;;;;5019003;28;20471;-85
2023/09/28 11:52:45;;;;;;;0.00;0.00;;;26.20;67.10;;;;;;5024495;28;20029;-84
2023/09/28 11:55:15;;;;;;;0.00;0.00;;;26.20;65.70;;;;;;5020909;28;20029;-85
2023/09/28 11:57:44;;;;;;;0.00;0.00;;;26.30;65.10;;;;;;5018824;28;20027;-85
2023/09/28 12:00:17;;;;;;;0.00;0.00;;;26.30;67.30;;;;;;5016005;28;20100;-86
2023/09/28 12:02:43;;;;;;;0.08;0.08;;;26.30;64.40;;;;;;5017486;28;20079;-84
2023/09/28 12:05:09;;;;;;;;;;;26.00;63.50;;;;;;5024400;28;20901;-85
2023/09/28 12:07:35;;;;;;;;;;;26.00;64.50;;;;;;5022085;28;19921;-84
2023/09/28 12:10:01;;;;;;;0.00;0.00;;;26.00;64.30;;;;;;5024807;28;19909;-84
2023/09/28 12:12:26;;;;;;;0.00;0.00;;;26.10;64.90;;;;;;5021487;28;20034;-84
2023/09/28 12:14:52;;;;;;;0.00;0.00;;;26.00;63.50;;;;;;5020388;28;20057;-84
2023/09/28 12:17:18;;;;;;;0.00;0.00;;;25.90;63.40;;;;;;5021291;28;20409;-84
2023/09/28 12:19:44;;;;;;;0.88;0.88;;;26.00;63.00;;;;;;5021041;28;20649;-86
2023/09/28 12:22:10;;;;;;;0.00;0.00;;;26.00;63.90;;;;;;5021283;28;20029;-85
2023/09/28 12:24:36;;;;;;;0.00;0.00;;;26.00;64.10;;;;;;5024291;28;20160;-84
2023/09/28 12:27:04;;;;;;;0.00;0.00;;;26.00;66.70;;;;;;5023237;28;20041;-84
2023/09/28 12:29:30;;;;;;;0.00;0.00;;;26.00;68.80;;;;;;5023244;28;20072;-84
2023/09/28 12:31:58;;;;;;;0.00;0.00;;;26.00;65.70;;;;;;5021001;28;20030;-84
2023/09/28 12:34:26;;;;;;;0.00;0.00;;;26.00;64.40;;;;;;5020657;28;20112;-84
2023/09/28 12:36:53;;;;;;;0.00;0.00;;;26.00;63.80;;;;;;5021351;28;20400;-84
2023/09/28 12:39:21;;;;;;;0.00;0.00;;;26.10;66.30;;;;;;5023345;28;20040;-84
2023/09/28 12:41:48;;;;;;;0.00;0.00;;;26.00;62.80;;;;;;5023820;28;20075;-84
2023/09/28 12:44:14;;;;;;;0.00;0.00;;;26.00;63.20;;;;;;5010605;28;20402;-85
2023/09/28 12:46:41;;;;;;;0.00;0.00;;;26.00;63.90;;;;;;5022645;28;20041;-85
2023/09/28 12:49:06;;;;;;;0.00;0.00;;;26.00;64.70;;;;;;5022598;28;20045;-84